Etusivu
METAR-TAF:

METAR-TAF

Lentoasemat :

Büchel, Saksa

Leveyspiiri: 50-10N, Pituuspiiri: 007-04E, korkeus merenpinnasta: 478 m

Tämänhetkinen sää

Tämä raportti tehtiin 47 minuuttia sitten, kello 19.20 UTC
Tuuli 6 kn koillisesta
Lämpötila 21°C
Kosteus 40%
Ilmanpaine 1024 hPa
Näkyvyys 10 km tai enemmän

METAR: ETSB 231920Z AUTO 04006KT 9999 // ////// 21/07 Q1024 ///

Aika: 22:07 (20:07 UTC)

Sääennuste

Tämä raportti tehtiin 10 tuntia ja 2 minuuttia sitten, kello 10.05 UTC
Ennuste voimassa 23. päivästä klo 10 UTC - 23. päivään klo 17 UTC
Tuuli 8 kn idästä
Näkyvyys: 1020 m
Muutamia pilviä 30000 ft:n korkeudessa

TAF: ETSB 231005Z 2310/2317 09008KT 9999 NSW FEW300 CANCEL 1020 BY ETGL

Säähavainnot ja -ennusteet yli 4000 lentoasemalta (METAR- ja TAF-raportit).

Käytössä olevat sääasemat on merkitty karttaan keltaisilla ja punaisilla pisteillä.

Aseta hiiri pisteen päälle nähdäksesi sääaseman nimen.

Klikkaa sitten nähdäksesi säähavainnot ja -ennusteet.

Kartan vaihtaminen: klikkaa mustalla rastilla varustettuja vihreitä pisteitä, niin voit zoomata sisään; viivalla varustettua vihreää pistettä, niin voit zoomata ulos tai vihreitä nuolia, niin pääset viereisille kartoille.


METAR-TAF: